TimeEST,TemperatureF,Dew PointF,Humidity,Sea Level PressureIn,VisibilityMPH,Wind Direction,Wind SpeedMPH,Gust SpeedMPH,PrecipitationIn,Events,Conditions,WindDirDegrees,DateUTC
12:25 AM,10.9,8.1,88,30.21,-9999.0,Calm,Calm,-,0.00,,Unknown,0,2012-11-27 05:25:00
1:25 AM,8.8,6.3,89,30.24,-9999.0,Calm,Calm,-,N/A,,Unknown,0,2012-11-27 06:25:00
2:25 AM,7.9,5.7,91,30.26,-9999.0,Calm,Calm,-,N/A,,Unknown,0,2012-11-27 07:25:00
3:25 AM,6.4,3.7,89,30.27,-9999.0,Calm,Calm,-,N/A,,Unknown,0,2012-11-27 08:25:00
4:25 AM,4.8,2.1,89,30.29,-9999.0,Calm,Calm,-,N/A,,Unknown,0,2012-11-27 09:25:00
5:26 AM,3.6,0.5,87,30.30,-9999.0,Calm,Calm,-,0.00,,Unknown,0,2012-11-27 10:26:00
6:25 AM,2.5,-0.6,87,30.32,-9999.0,Calm,Calm,-,N/A,,Unknown,0,2012-11-27 11:25:00
7:25 AM,2.7,-0.2,88,30.35,-9999.0,Calm,Calm,-,N/A,,Unknown,0,2012-11-27 12:25:00
8:25 AM,7.9,4.8,87,30.35,-9999.0,Calm,Calm,-,0.01,,Unknown,0,2012-11-27 13:25:00
9:25 AM,16.2,11.3,81,30.35,-9999.0,Calm,Calm,-,0.00,,Unknown,0,2012-11-27 14:25:00
10:25 AM,20.3,10.6,66,30.36,-9999.0,Calm,Calm,-,N/A,,Unknown,0,2012-11-27 15:25:00
11:25 AM,23.2,12.9,65,30.34,-9999.0,Variable,3.5,-,N/A,,Unknown,0,2012-11-27 16:25:00
12:28 PM,25.2,11.7,57,30.33,-9999.0,SSW,6.9,16.1,N/A,,Unknown,200,2012-11-27 17:28:00
1:25 PM,25.0,11.5,57,30.32,-9999.0,Variable,4.6,-,N/A,,Unknown,0,2012-11-27 18:25:00
2:25 PM,25.0,10.9,55,30.31,-9999.0,South,8.1,-,N/A,,Unknown,190,2012-11-27 19:25:00
3:25 PM,23.9,12.2,61,30.31,-9999.0,Variable,2.3,-,N/A,,Unknown,0,2012-11-27 20:25:00
4:25 PM,19.9,12.4,72,30.32,-9999.0,Variable,3.5,-,N/A,,Unknown,0,2012-11-27 21:25:00
5:25 PM,16.3,11.5,81,30.33,-9999.0,Calm,Calm,-,0.00,,Unknown,0,2012-11-27 22:25:00
6:25 PM,13.8,10.2,86,30.33,-9999.0,Calm,Calm,-,N/A,,Unknown,0,2012-11-27 23:25:00
7:26 PM,10.9,8.1,88,30.33,-9999.0,Variable,2.3,-,N/A,,Unknown,0,2012-11-28 00:26:00
8:25 PM,10.4,7.7,89,30.34,-9999.0,Calm,Calm,-,0.00,,Unknown,0,2012-11-28 01:25:00
9:25 PM,7.9,5.4,89,30.35,-9999.0,Calm,Calm,-,N/A,,Unknown,0,2012-11-28 02:25:00
10:25 PM,6.8,4.1,89,30.34,-9999.0,Calm,Calm,-,N/A,,Unknown,0,2012-11-28 03:25:00
11:25 PM,5.7,3.2,89,30.34,-9999.0,Calm,Calm,-,N/A,,Unknown,0,2012-11-28 04:25:00